sensor_id;sensor_type;location;lat;lon;timestamp;temperature;humidity
1413;DHT22;701;52.526;13.408;2023-10-31T00:02:15;13.80;26.60
1413;DHT22;701;52.526;13.408;2023-10-31T00:04:41;13.70;26.50
1413;DHT22;701;52.526;13.408;2023-10-31T00:07:07;13.70;26.50
1413;DHT22;701;52.526;13.408;2023-10-31T00:09:32;13.70;26.60
1413;DHT22;701;52.526;13.408;2023-10-31T00:11:58;13.70;26.80
1413;DHT22;701;52.526;13.408;2023-10-31T00:14:24;13.70;26.90
1413;DHT22;701;52.526;13.408;2023-10-31T00:16:50;13.70;26.90
1413;DHT22;701;52.526;13.408;2023-10-31T00:19:16;13.70;26.90
1413;DHT22;701;52.526;13.408;2023-10-31T00:21:42;13.70;27.00
1413;DHT22;701;52.526;13.408;2023-10-31T00:24:07;13.70;27.10
1413;DHT22;701;52.526;13.408;2023-10-31T00:26:33;13.80;27.20
1413;DHT22;701;52.526;13.408;2023-10-31T00:28:59;13.80;27.30
1413;DHT22;701;52.526;13.408;2023-10-31T00:31:25;13.80;27.50
1413;DHT22;701;52.526;13.408;2023-10-31T00:33:51;13.80;27.40
1413;DHT22;701;52.526;13.408;2023-10-31T00:36:16;13.80;27.40
1413;DHT22;701;52.526;13.408;2023-10-31T00:38:42;13.80;27.50
1413;DHT22;701;52.526;13.408;2023-10-31T00:41:08;13.80;27.60
1413;DHT22;701;52.526;13.408;2023-10-31T00:43:34;13.80;27.60
1413;DHT22;701;52.526;13.408;2023-10-31T00:46:02;13.80;27.80
1413;DHT22;701;52.526;13.408;2023-10-31T00:48:28;13.80;27.70
1413;DHT22;701;52.526;13.408;2023-10-31T00:50:53;13.80;27.70
1413;DHT22;701;52.526;13.408;2023-10-31T00:53:19;13.80;27.80
1413;DHT22;701;52.526;13.408;2023-10-31T00:55:45;13.80;28.00
1413;DHT22;701;52.526;13.408;2023-10-31T00:58:12;13.80;28.00
1413;DHT22;701;52.526;13.408;2023-10-31T01:00:38;13.80;28.10
1413;DHT22;701;52.526;13.408;2023-10-31T01:03:04;13.80;28.10
1413;DHT22;701;52.526;13.408;2023-10-31T01:05:30;13.80;28.30
1413;DHT22;701;52.526;13.408;2023-10-31T01:07:55;13.80;28.30
1413;DHT22;701;52.526;13.408;2023-10-31T01:10:21;13.80;28.30
1413;DHT22;701;52.526;13.408;2023-10-31T01:12:48;13.80;28.30
1413;DHT22;701;52.526;13.408;2023-10-31T01:15:13;13.80;28.30
1413;DHT22;701;52.526;13.408;2023-10-31T01:17:39;13.80;28.40
1413;DHT22;701;52.526;13.408;2023-10-31T01:20:06;13.80;28.70
1413;DHT22;701;52.526;13.408;2023-10-31T01:22:32;13.80;28.60
1413;DHT22;701;52.526;13.408;2023-10-31T01:24:57;13.70;28.80
1413;DHT22;701;52.526;13.408;2023-10-31T01:27:23;13.70;29.00
1413;DHT22;701;52.526;13.408;2023-10-31T01:29:49;13.70;29.00
1413;DHT22;701;52.526;13.408;2023-10-31T01:32:15;13.70;29.60
1413;DHT22;701;52.526;13.408;2023-10-31T01:34:40;13.70;30.00
1413;DHT22;701;52.526;13.408;2023-10-31T01:37:06;13.60;30.00
1413;DHT22;701;52.526;13.408;2023-10-31T01:39:32;13.60;30.30
1413;DHT22;701;52.526;13.408;2023-10-31T01:41:57;13.60;30.50
1413;DHT22;701;52.526;13.408;2023-10-31T01:44:23;13.60;30.80
1413;DHT22;701;52.526;13.408;2023-10-31T01:46:50;13.60;31.30
1413;DHT22;701;52.526;13.408;2023-10-31T01:49:16;13.60;31.10
1413;DHT22;701;52.526;13.408;2023-10-31T01:51:43;13.60;31.40
1413;DHT22;701;52.526;13.408;2023-10-31T01:54:10;13.60;31.30
1413;DHT22;701;52.526;13.408;2023-10-31T01:56:36;13.60;31.40
1413;DHT22;701;52.526;13.408;2023-10-31T01:59:05;13.60;31.70
1413;DHT22;701;52.526;13.408;2023-10-31T02:01:34;13.60;31.70
1413;DHT22;701;52.526;13.408;2023-10-31T02:04:01;13.60;32.10
1413;DHT22;701;52.526;13.408;2023-10-31T02:06:28;13.60;31.70
1413;DHT22;701;52.526;13.408;2023-10-31T02:08:56;13.60;31.80
1413;DHT22;701;52.526;13.408;2023-10-31T02:11:22;13.60;32.20
1413;DHT22;701;52.526;13.408;2023-10-31T02:13:48;13.60;32.70
1413;DHT22;701;52.526;13.408;2023-10-31T02:16:13;13.60;33.20
1413;DHT22;701;52.526;13.408;2023-10-31T02:18:39;13.60;33.40
1413;DHT22;701;52.526;13.408;2023-10-31T02:21:05;13.50;33.70
1413;DHT22;701;52.526;13.408;2023-10-31T02:23:31;13.50;33.80
1413;DHT22;701;52.526;13.408;2023-10-31T02:25:57;13.50;34.20
1413;DHT22;701;52.526;13.408;2023-10-31T02:28:22;13.50;34.30
1413;DHT22;701;52.526;13.408;2023-10-31T02:30:53;13.40;34.20
1413;DHT22;701;52.526;13.408;2023-10-31T02:33:20;13.40;34.20
1413;DHT22;701;52.526;13.408;2023-10-31T02:35:46;13.40;34.20
1413;DHT22;701;52.526;13.408;2023-10-31T02:38:14;13.40;34.20
1413;DHT22;701;52.526;13.408;2023-10-31T02:40:40;13.40;34.40
1413;DHT22;701;52.526;13.408;2023-10-31T02:43:06;13.30;35.00
1413;DHT22;701;52.526;13.408;2023-10-31T02:45:32;13.30;35.10
1413;DHT22;701;52.526;13.408;2023-10-31T02:47:59;13.30;35.00
1413;DHT22;701;52.526;13.408;2023-10-31T02:50:25;13.30;35.40
1413;DHT22;701;52.526;13.408;2023-10-31T02:52:51;13.30;35.40
1413;DHT22;701;52.526;13.408;2023-10-31T02:55:16;13.30;35.90
1413;DHT22;701;52.526;13.408;2023-10-31T02:57:42;13.30;35.70
1413;DHT22;701;52.526;13.408;2023-10-31T03:00:09;13.30;35.60
1413;DHT22;701;52.526;13.408;2023-10-31T03:02:35;13.30;35.80
1413;DHT22;701;52.526;13.408;2023-10-31T03:05:01;13.30;36.30
1413;DHT22;701;52.526;13.408;2023-10-31T03:07:27;13.30;36.20
1413;DHT22;701;52.526;13.408;2023-10-31T03:09:53;13.30;36.40
1413;DHT22;701;52.526;13.408;2023-10-31T03:12:19;13.30;36.40
1413;DHT22;701;52.526;13.408;2023-10-31T03:14:45;13.30;36.60
1413;DHT22;701;52.526;13.408;2023-10-31T03:17:11;13.20;36.70
1413;DHT22;701;52.526;13.408;2023-10-31T03:19:37;13.30;37.00
1413;DHT22;701;52.526;13.408;2023-10-31T03:22:03;13.20;37.60
1413;DHT22;701;52.526;13.408;2023-10-31T03:24:29;13.20;37.60
1413;DHT22;701;52.526;13.408;2023-10-31T03:26:55;13.20;38.20
1413;DHT22;701;52.526;13.408;2023-10-31T03:29:21;13.20;38.00
1413;DHT22;701;52.526;13.408;2023-10-31T03:31:46;13.20;38.40
1413;DHT22;701;52.526;13.408;2023-10-31T03:34:12;13.20;38.50
1413;DHT22;701;52.526;13.408;2023-10-31T03:36:38;13.20;38.50
1413;DHT22;701;52.526;13.408;2023-10-31T03:39:04;13.20;38.50
1413;DHT22;701;52.526;13.408;2023-10-31T03:41:29;13.20;38.40
1413;DHT22;701;52.526;13.408;2023-10-31T03:43:55;13.30;38.60
1413;DHT22;701;52.526;13.408;2023-10-31T03:46:21;13.30;38.50
1413;DHT22;701;52.526;13.408;2023-10-31T03:48:47;13.30;38.50
1413;DHT22;701;52.526;13.408;2023-10-31T03:51:13;13.30;38.90
1413;DHT22;701;52.526;13.408;2023-10-31T03:53:38;13.30;38.80
1413;DHT22;701;52.526;13.408;2023-10-31T03:56:04;13.30;38.50
1413;DHT22;701;52.526;13.408;2023-10-31T03:58:30;13.30;38.50
1413;DHT22;701;52.526;13.408;2023-10-31T04:00:57;13.40;38.60
1413;DHT22;701;52.526;13.408;2023-10-31T04:03:23;13.40;38.60
1413;DHT22;701;52.526;13.408;2023-10-31T04:05:49;13.40;38.60
1413;DHT22;701;52.526;13.408;2023-10-31T04:08:15;13.40;38.60
1413;DHT22;701;52.526;13.408;2023-10-31T04:10:41;13.40;38.80
1413;DHT22;701;52.526;13.408;2023-10-31T04:13:06;13.40;39.00
1413;DHT22;701;52.526;13.408;2023-10-31T04:15:32;13.40;38.90
1413;DHT22;701;52.526;13.408;2023-10-31T04:18:00;13.40;38.90
1413;DHT22;701;52.526;13.408;2023-10-31T04:20:26;13.40;38.70
1413;DHT22;701;52.526;13.408;2023-10-31T04:22:51;13.40;39.00
1413;DHT22;701;52.526;13.408;2023-10-31T04:25:17;13.40;39.00
1413;DHT22;701;52.526;13.408;2023-10-31T04:27:43;13.40;39.20
1413;DHT22;701;52.526;13.408;2023-10-31T04:30:09;13.40;39.30
1413;DHT22;701;52.526;13.408;2023-10-31T04:32:35;13.40;39.40
1413;DHT22;701;52.526;13.408;2023-10-31T04:35:00;13.40;39.30
1413;DHT22;701;52.526;13.408;2023-10-31T04:37:26;13.40;39.60
1413;DHT22;701;52.526;13.408;2023-10-31T04:39:52;13.40;39.70
1413;DHT22;701;52.526;13.408;2023-10-31T04:42:17;13.40;39.90
1413;DHT22;701;52.526;13.408;2023-10-31T04:44:46;13.40;39.70
1413;DHT22;701;52.526;13.408;2023-10-31T04:47:11;13.40;40.00
1413;DHT22;701;52.526;13.408;2023-10-31T04:49:37;13.40;40.10
1413;DHT22;701;52.526;13.408;2023-10-31T04:52:03;13.40;40.00
1413;DHT22;701;52.526;13.408;2023-10-31T04:54:29;13.40;40.00
1413;DHT22;701;52.526;13.408;2023-10-31T04:56:55;13.40;40.10
1413;DHT22;701;52.526;13.408;2023-10-31T04:59:20;13.50;40.40
1413;DHT22;701;52.526;13.408;2023-10-31T05:01:50;13.50;40.20
1413;DHT22;701;52.526;13.408;2023-10-31T05:04:20;13.50;40.30
1413;DHT22;701;52.526;13.408;2023-10-31T05:06:46;13.50;40.60
1413;DHT22;701;52.526;13.408;2023-10-31T05:09:13;13.50;40.30
1413;DHT22;701;52.526;13.408;2023-10-31T05:11:39;13.50;40.40
1413;DHT22;701;52.526;13.408;2023-10-31T05:14:08;13.50;40.60
1413;DHT22;701;52.526;13.408;2023-10-31T05:16:44;13.50;40.40
1413;DHT22;701;52.526;13.408;2023-10-31T05:19:10;13.60;41.20
1413;DHT22;701;52.526;13.408;2023-10-31T05:21:36;13.60;40.60
1413;DHT22;701;52.526;13.408;2023-10-31T05:24:02;13.60;40.70
1413;DHT22;701;52.526;13.408;2023-10-31T05:26:28;13.60;40.70
1413;DHT22;701;52.526;13.408;2023-10-31T05:28:55;13.60;40.80
1413;DHT22;701;52.526;13.408;2023-10-31T05:31:23;13.60;40.80
1413;DHT22;701;52.526;13.408;2023-10-31T05:33:48;13.60;40.80
1413;DHT22;701;52.526;13.408;2023-10-31T05:36:22;13.70;41.10
1413;DHT22;701;52.526;13.408;2023-10-31T05:38:48;13.70;41.10
1413;DHT22;701;52.526;13.408;2023-10-31T05:41:14;13.60;41.20
1413;DHT22;701;52.526;13.408;2023-10-31T05:43:40;13.60;41.20
1413;DHT22;701;52.526;13.408;2023-10-31T05:46:07;13.60;41.40
1413;DHT22;701;52.526;13.408;2023-10-31T05:48:37;13.60;41.40
1413;DHT22;701;52.526;13.408;2023-10-31T05:51:10;13.70;41.50
1413;DHT22;701;52.526;13.408;2023-10-31T05:53:36;13.70;41.90
1413;DHT22;701;52.526;13.408;2023-10-31T05:56:02;13.70;42.00
1413;DHT22;701;52.526;13.408;2023-10-31T05:58:27;13.70;42.00
1413;DHT22;701;52.526;13.408;2023-10-31T06:00:53;13.70;42.10
1413;DHT22;701;52.526;13.408;2023-10-31T06:03:19;13.70;42.20
1413;DHT22;701;52.526;13.408;2023-10-31T06:05:45;13.80;42.20
1413;DHT22;701;52.526;13.408;2023-10-31T06:08:11;13.80;42.30
1413;DHT22;701;52.526;13.408;2023-10-31T06:10:37;13.80;42.30
1413;DHT22;701;52.526;13.408;2023-10-31T06:13:03;13.80;42.40
1413;DHT22;701;52.526;13.408;2023-10-31T06:15:28;13.80;42.30
1413;DHT22;701;52.526;13.408;2023-10-31T06:17:54;13.90;42.60
1413;DHT22;701;52.526;13.408;2023-10-31T06:20:20;13.90;42.50
1413;DHT22;701;52.526;13.408;2023-10-31T06:22:46;13.90;42.70
1413;DHT22;701;52.526;13.408;2023-10-31T06:25:11;13.90;42.60
1413;DHT22;701;52.526;13.408;2023-10-31T06:27:37;13.90;42.80
1413;DHT22;701;52.526;13.408;2023-10-31T06:30:06;14.00;42.90
1413;DHT22;701;52.526;13.408;2023-10-31T06:32:32;14.00;42.90
1413;DHT22;701;52.526;13.408;2023-10-31T06:34:58;13.90;42.90
1413;DHT22;701;52.526;13.408;2023-10-31T06:37:24;14.00;43.00
1413;DHT22;701;52.526;13.408;2023-10-31T06:39:50;14.00;43.00
1413;DHT22;701;52.526;13.408;2023-10-31T06:42:15;14.00;43.00
1413;DHT22;701;52.526;13.408;2023-10-31T06:44:41;14.00;43.00
1413;DHT22;701;52.526;13.408;2023-10-31T06:47:07;14.00;43.10
1413;DHT22;701;52.526;13.408;2023-10-31T06:49:32;14.00;43.30
1413;DHT22;701;52.526;13.408;2023-10-31T06:51:58;14.10;43.20
1413;DHT22;701;52.526;13.408;2023-10-31T06:54:24;14.10;43.40
1413;DHT22;701;52.526;13.408;2023-10-31T06:56:49;14.10;44.10
1413;DHT22;701;52.526;13.408;2023-10-31T06:59:15;14.20;43.30
1413;DHT22;701;52.526;13.408;2023-10-31T07:01:41;14.20;43.40
1413;DHT22;701;52.526;13.408;2023-10-31T07:04:07;14.20;43.40
1413;DHT22;701;52.526;13.408;2023-10-31T07:06:33;14.30;43.30
1413;DHT22;701;52.526;13.408;2023-10-31T07:08:58;14.30;43.20
1413;DHT22;701;52.526;13.408;2023-10-31T07:11:26;14.30;43.00
1413;DHT22;701;52.526;13.408;2023-10-31T07:13:51;14.40;43.00
1413;DHT22;701;52.526;13.408;2023-10-31T07:16:17;14.40;42.80
1413;DHT22;701;52.526;13.408;2023-10-31T07:18:43;14.50;42.90
1413;DHT22;701;52.526;13.408;2023-10-31T07:21:08;14.50;42.60
1413;DHT22;701;52.526;13.408;2023-10-31T07:23:34;14.50;42.50
1413;DHT22;701;52.526;13.408;2023-10-31T07:26:00;14.50;42.50
1413;DHT22;701;52.526;13.408;2023-10-31T07:28:25;14.50;42.40
1413;DHT22;701;52.526;13.408;2023-10-31T07:30:51;14.50;41.20
1413;DHT22;701;52.526;13.408;2023-10-31T07:33:17;14.50;40.30
1413;DHT22;701;52.526;13.408;2023-10-31T07:35:43;14.40;39.50
1413;DHT22;701;52.526;13.408;2023-10-31T07:38:09;14.40;39.50
1413;DHT22;701;52.526;13.408;2023-10-31T07:40:34;14.40;37.70
1413;DHT22;701;52.526;13.408;2023-10-31T07:43:00;14.40;37.50
1413;DHT22;701;52.526;13.408;2023-10-31T07:45:26;14.40;36.80
1413;DHT22;701;52.526;13.408;2023-10-31T07:47:52;14.40;35.80
1413;DHT22;701;52.526;13.408;2023-10-31T07:50:18;14.40;34.80
1413;DHT22;701;52.526;13.408;2023-10-31T07:52:44;14.40;34.60
1413;DHT22;701;52.526;13.408;2023-10-31T07:55:12;14.50;33.10
1413;DHT22;701;52.526;13.408;2023-10-31T07:57:37;14.50;32.10
1413;DHT22;701;52.526;13.408;2023-10-31T08:00:04;14.50;32.00
1413;DHT22;701;52.526;13.408;2023-10-31T08:02:37;14.50;30.80
1413;DHT22;701;52.526;13.408;2023-10-31T08:05:03;14.50;30.60
1413;DHT22;701;52.526;13.408;2023-10-31T08:07:29;14.60;30.70
1413;DHT22;701;52.526;13.408;2023-10-31T08:09:56;14.60;30.00
1413;DHT22;701;52.526;13.408;2023-10-31T08:12:22;14.60;29.00
1413;DHT22;701;52.526;13.408;2023-10-31T08:14:48;14.70;28.30
1413;DHT22;701;52.526;13.408;2023-10-31T08:17:14;14.70;27.20
1413;DHT22;701;52.526;13.408;2023-10-31T08:19:39;14.70;26.80
1413;DHT22;701;52.526;13.408;2023-10-31T08:22:05;14.80;27.80
1413;DHT22;701;52.526;13.408;2023-10-31T08:24:31;14.80;24.80
1413;DHT22;701;52.526;13.408;2023-10-31T08:26:57;14.90;25.10
1413;DHT22;701;52.526;13.408;2023-10-31T08:29:23;14.90;24.30
1413;DHT22;701;52.526;13.408;2023-10-31T08:31:49;14.90;24.30
1413;DHT22;701;52.526;13.408;2023-10-31T08:34:14;14.90;23.70
1413;DHT22;701;52.526;13.408;2023-10-31T08:36:40;14.90;23.70
1413;DHT22;701;52.526;13.408;2023-10-31T08:39:06;15.00;23.10
1413;DHT22;701;52.526;13.408;2023-10-31T08:41:32;14.90;21.70
1413;DHT22;701;52.526;13.408;2023-10-31T08:43:57;14.90;22.20
1413;DHT22;701;52.526;13.408;2023-10-31T08:46:24;15.10;23.10
1413;DHT22;701;52.526;13.408;2023-10-31T08:48:50;15.30;21.20
1413;DHT22;701;52.526;13.408;2023-10-31T08:51:15;15.40;20.70
1413;DHT22;701;52.526;13.408;2023-10-31T08:53:41;15.50;20.30
1413;DHT22;701;52.526;13.408;2023-10-31T08:56:07;15.70;19.40
1413;DHT22;701;52.526;13.408;2023-10-31T08:58:33;15.70;19.00
1413;DHT22;701;52.526;13.408;2023-10-31T09:00:59;15.70;19.00
1413;DHT22;701;52.526;13.408;2023-10-31T09:03:25;15.70;18.70
1413;DHT22;701;52.526;13.408;2023-10-31T09:05:50;15.70;18.30
1413;DHT22;701;52.526;13.408;2023-10-31T09:08:16;15.60;17.70
1413;DHT22;701;52.526;13.408;2023-10-31T09:10:42;15.50;17.60
1413;DHT22;701;52.526;13.408;2023-10-31T09:13:11;15.50;17.40
1413;DHT22;701;52.526;13.408;2023-10-31T09:15:37;15.50;17.30
1413;DHT22;701;52.526;13.408;2023-10-31T09:18:04;15.60;16.90
1413;DHT22;701;52.526;13.408;2023-10-31T09:20:30;15.60;16.90
1413;DHT22;701;52.526;13.408;2023-10-31T09:22:55;15.70;16.20
1413;DHT22;701;52.526;13.408;2023-10-31T09:25:21;15.70;16.20
1413;DHT22;701;52.526;13.408;2023-10-31T09:27:47;15.70;15.00
1413;DHT22;701;52.526;13.408;2023-10-31T09:30:13;15.70;15.00
1413;DHT22;701;52.526;13.408;2023-10-31T09:32:39;15.70;14.90
1413;DHT22;701;52.526;13.408;2023-10-31T09:35:05;15.80;14.40
1413;DHT22;701;52.526;13.408;2023-10-31T09:37:33;15.70;13.90
1413;DHT22;701;52.526;13.408;2023-10-31T09:39:59;15.70;14.20
1413;DHT22;701;52.526;13.408;2023-10-31T09:42:25;15.60;14.00
1413;DHT22;701;52.526;13.408;2023-10-31T09:44:51;15.60;14.50
1413;DHT22;701;52.526;13.408;2023-10-31T09:47:17;15.50;14.20
1413;DHT22;701;52.526;13.408;2023-10-31T09:49:43;15.50;14.00
1413;DHT22;701;52.526;13.408;2023-10-31T09:52:10;15.50;14.30
1413;DHT22;701;52.526;13.408;2023-10-31T09:54:37;15.50;14.30
1413;DHT22;701;52.526;13.408;2023-10-31T09:57:04;15.40;14.20
1413;DHT22;701;52.526;13.408;2023-10-31T09:59:30;15.40;13.90
1413;DHT22;701;52.526;13.408;2023-10-31T10:01:56;15.50;14.10
1413;DHT22;701;52.526;13.408;2023-10-31T10:04:21;15.60;14.20
1413;DHT22;701;52.526;13.408;2023-10-31T10:07:06;15.70;14.10
1413;DHT22;701;52.526;13.408;2023-10-31T10:09:32;15.70;13.20
1413;DHT22;701;52.526;13.408;2023-10-31T10:12:01;15.70;13.20
1413;DHT22;701;52.526;13.408;2023-10-31T10:14:27;15.80;13.50
1413;DHT22;701;52.526;13.408;2023-10-31T10:16:59;15.80;13.30
1413;DHT22;701;52.526;13.408;2023-10-31T10:19:25;15.90;13.90
1413;DHT22;701;52.526;13.408;2023-10-31T10:21:56;15.90;13.40
1413;DHT22;701;52.526;13.408;2023-10-31T10:24:23;16.00;13.50
1413;DHT22;701;52.526;13.408;2023-10-31T10:26:50;16.20;13.30
1413;DHT22;701;52.526;13.408;2023-10-31T10:29:17;16.30;12.70
1413;DHT22;701;52.526;13.408;2023-10-31T10:31:43;16.30;12.70
1413;DHT22;701;52.526;13.408;2023-10-31T10:34:13;16.40;12.60
1413;DHT22;701;52.526;13.408;2023-10-31T10:36:39;16.40;12.40
1413;DHT22;701;52.526;13.408;2023-10-31T10:39:06;16.40;12.20
1413;DHT22;701;52.526;13.408;2023-10-31T10:41:34;16.40;12.30
1413;DHT22;701;52.526;13.408;2023-10-31T10:44:07;16.40;12.30
1413;DHT22;701;52.526;13.408;2023-10-31T10:46:36;16.50;11.90
1413;DHT22;701;52.526;13.408;2023-10-31T10:49:07;16.50;12.10
1413;DHT22;701;52.526;13.408;2023-10-31T10:52:10;16.60;11.80
1413;DHT22;701;52.526;13.408;2023-10-31T10:54:53;16.70;10.80
1413;DHT22;701;52.526;13.408;2023-10-31T10:57:42;16.90;10.30
1413;DHT22;701;52.526;13.408;2023-10-31T11:00:10;17.00;10.30
1413;DHT22;701;52.526;13.408;2023-10-31T11:02:40;16.90;10.30
1413;DHT22;701;52.526;13.408;2023-10-31T11:05:09;17.00;10.30
1413;DHT22;701;52.526;13.408;2023-10-31T11:07:37;17.10;10.40
1413;DHT22;701;52.526;13.408;2023-10-31T11:10:04;17.10;9.90
1413;DHT22;701;52.526;13.408;2023-10-31T11:12:31;17.20;9.90
1413;DHT22;701;52.526;13.408;2023-10-31T11:14:58;17.30;9.50
1413;DHT22;701;52.526;13.408;2023-10-31T11:17:31;17.30;9.40
1413;DHT22;701;52.526;13.408;2023-10-31T11:19:58;17.40;8.70
1413;DHT22;701;52.526;13.408;2023-10-31T11:22:24;17.40;9.10
1413;DHT22;701;52.526;13.408;2023-10-31T11:24:50;17.40;8.80
1413;DHT22;701;52.526;13.408;2023-10-31T11:27:17;17.40;8.80
1413;DHT22;701;52.526;13.408;2023-10-31T11:29:43;17.20;8.80
1413;DHT22;701;52.526;13.408;2023-10-31T11:32:10;17.10;8.90
1413;DHT22;701;52.526;13.408;2023-10-31T11:34:41;17.00;9.00
1413;DHT22;701;52.526;13.408;2023-10-31T11:37:31;16.90;9.20
1413;DHT22;701;52.526;13.408;2023-10-31T11:40:16;16.80;9.30
1413;DHT22;701;52.526;13.408;2023-10-31T11:42:53;16.70;9.30
1413;DHT22;701;52.526;13.408;2023-10-31T11:48:01;16.50;10.00
1413;DHT22;701;52.526;13.408;2023-10-31T11:50:27;16.40;10.10
1413;DHT22;701;52.526;13.408;2023-10-31T11:53:06;16.30;10.20
1413;DHT22;701;52.526;13.408;2023-10-31T11:55:38;16.20;10.50
1413;DHT22;701;52.526;13.408;2023-10-31T12:00:47;16.30;10.90
1413;DHT22;701;52.526;13.408;2023-10-31T12:03:16;16.40;10.80
1413;DHT22;701;52.526;13.408;2023-10-31T12:05:56;16.50;10.70
1413;DHT22;701;52.526;13.408;2023-10-31T12:08:30;16.40;10.00
1413;DHT22;701;52.526;13.408;2023-10-31T12:13:30;16.30;10.40
1413;DHT22;701;52.526;13.408;2023-10-31T12:15:55;16.20;10.60
1413;DHT22;701;52.526;13.408;2023-10-31T12:18:21;16.20;10.80
1413;DHT22;701;52.526;13.408;2023-10-31T12:20:51;16.10;10.80
1413;DHT22;701;52.526;13.408;2023-10-31T12:23:20;15.90;10.40
1413;DHT22;701;52.526;13.408;2023-10-31T12:25:53;15.80;10.60
1413;DHT22;701;52.526;13.408;2023-10-31T12:28:23;15.70;10.80
1413;DHT22;701;52.526;13.408;2023-10-31T12:30:52;15.70;10.80
1413;DHT22;701;52.526;13.408;2023-10-31T12:33:20;15.70;11.00
1413;DHT22;701;52.526;13.408;2023-10-31T12:35:48;15.80;10.80
1413;DHT22;701;52.526;13.408;2023-10-31T12:38:15;15.80;10.80
1413;DHT22;701;52.526;13.408;2023-10-31T12:40:43;15.90;10.80
1413;DHT22;701;52.526;13.408;2023-10-31T12:43:09;16.00;10.30
1413;DHT22;701;52.526;13.408;2023-10-31T12:45:35;16.10;9.80
1413;DHT22;701;52.526;13.408;2023-10-31T12:48:06;16.10;10.10
1413;DHT22;701;52.526;13.408;2023-10-31T12:50:34;16.20;9.80
1413;DHT22;701;52.526;13.408;2023-10-31T12:53:01;16.20;9.80
1413;DHT22;701;52.526;13.408;2023-10-31T12:55:30;16.20;9.80
1413;DHT22;701;52.526;13.408;2023-10-31T12:57:57;16.20;9.50
1413;DHT22;701;52.526;13.408;2023-10-31T13:00:30;16.20;9.80
1413;DHT22;701;52.526;13.408;2023-10-31T13:03:02;16.20;9.60
1413;DHT22;701;52.526;13.408;2023-10-31T13:05:29;16.10;9.40
1413;DHT22;701;52.526;13.408;2023-10-31T13:07:56;16.10;9.40
1413;DHT22;701;52.526;13.408;2023-10-31T13:10:23;16.00;9.40
1413;DHT22;701;52.526;13.408;2023-10-31T13:12:50;15.90;9.60
1413;DHT22;701;52.526;13.408;2023-10-31T13:15:17;15.90;9.60
1413;DHT22;701;52.526;13.408;2023-10-31T13:17:46;15.80;9.50
1413;DHT22;701;52.526;13.408;2023-10-31T13:20:14;15.80;9.50
1413;DHT22;701;52.526;13.408;2023-10-31T13:22:41;15.80;9.80
1413;DHT22;701;52.526;13.408;2023-10-31T13:25:09;15.80;9.60
1413;DHT22;701;52.526;13.408;2023-10-31T13:27:39;15.70;10.00
1413;DHT22;701;52.526;13.408;2023-10-31T13:30:06;15.70;10.10
1413;DHT22;701;52.526;13.408;2023-10-31T13:32:34;15.60;10.20
1413;DHT22;701;52.526;13.408;2023-10-31T13:35:00;15.60;10.30
1413;DHT22;701;52.526;13.408;2023-10-31T13:37:26;15.60;10.40
1413;DHT22;701;52.526;13.408;2023-10-31T13:39:52;15.60;10.40
1413;DHT22;701;52.526;13.408;2023-10-31T13:42:18;15.60;10.60
1413;DHT22;701;52.526;13.408;2023-10-31T13:44:44;15.60;11.00
1413;DHT22;701;52.526;13.408;2023-10-31T13:47:10;15.50;11.10
1413;DHT22;701;52.526;13.408;2023-10-31T13:49:36;15.50;11.50
1413;DHT22;701;52.526;13.408;2023-10-31T13:52:06;15.40;12.20
1413;DHT22;701;52.526;13.408;2023-10-31T13:54:32;15.40;13.10
1413;DHT22;701;52.526;13.408;2023-10-31T13:56:58;15.40;13.10
1413;DHT22;701;52.526;13.408;2023-10-31T13:59:25;15.40;13.20
1413;DHT22;701;52.526;13.408;2023-10-31T14:01:50;15.30;13.70
1413;DHT22;701;52.526;13.408;2023-10-31T14:04:17;15.30;14.00
1413;DHT22;701;52.526;13.408;2023-10-31T14:06:43;15.20;14.00
1413;DHT22;701;52.526;13.408;2023-10-31T14:09:10;15.20;14.10
1413;DHT22;701;52.526;13.408;2023-10-31T14:11:38;15.10;14.20
1413;DHT22;701;52.526;13.408;2023-10-31T14:14:04;15.10;14.50
1413;DHT22;701;52.526;13.408;2023-10-31T14:16:39;14.90;14.70
1413;DHT22;701;52.526;13.408;2023-10-31T14:19:06;14.90;15.40
1413;DHT22;701;52.526;13.408;2023-10-31T14:21:33;14.80;15.60
1413;DHT22;701;52.526;13.408;2023-10-31T14:24:00;14.80;15.80
1413;DHT22;701;52.526;13.408;2023-10-31T14:26:26;14.70;16.30
1413;DHT22;701;52.526;13.408;2023-10-31T14:28:52;14.60;16.30
1413;DHT22;701;52.526;13.408;2023-10-31T14:31:18;14.60;16.80
1413;DHT22;701;52.526;13.408;2023-10-31T14:33:46;14.50;17.00
1413;DHT22;701;52.526;13.408;2023-10-31T14:36:12;14.50;17.80
1413;DHT22;701;52.526;13.408;2023-10-31T14:38:39;14.40;19.30
1413;DHT22;701;52.526;13.408;2023-10-31T14:41:05;14.30;19.70
1413;DHT22;701;52.526;13.408;2023-10-31T14:43:31;14.30;20.30
1413;DHT22;701;52.526;13.408;2023-10-31T14:45:57;14.20;21.10
1413;DHT22;701;52.526;13.408;2023-10-31T14:48:23;14.10;21.50
1413;DHT22;701;52.526;13.408;2023-10-31T14:50:49;14.00;21.40
1413;DHT22;701;52.526;13.408;2023-10-31T14:53:16;14.00;22.50
1413;DHT22;701;52.526;13.408;2023-10-31T14:55:42;13.90;23.10
1413;DHT22;701;52.526;13.408;2023-10-31T14:58:07;13.80;23.90
1413;DHT22;701;52.526;13.408;2023-10-31T15:00:36;13.70;24.30
1413;DHT22;701;52.526;13.408;2023-10-31T15:03:03;13.70;24.90
1413;DHT22;701;52.526;13.408;2023-10-31T15:05:29;13.60;25.10
1413;DHT22;701;52.526;13.408;2023-10-31T15:07:56;13.50;25.30
1413;DHT22;701;52.526;13.408;2023-10-31T15:10:23;13.50;25.70
1413;DHT22;701;52.526;13.408;2023-10-31T15:12:49;13.40;25.70
1413;DHT22;701;52.526;13.408;2023-10-31T15:15:18;13.40;26.00
1413;DHT22;701;52.526;13.408;2023-10-31T15:17:45;13.40;26.40
1413;DHT22;701;52.526;13.408;2023-10-31T15:20:11;13.30;26.20
1413;DHT22;701;52.526;13.408;2023-10-31T15:22:40;13.30;27.40
1413;DHT22;701;52.526;13.408;2023-10-31T15:25:07;13.30;27.80
1413;DHT22;701;52.526;13.408;2023-10-31T15:27:34;13.20;27.80
1413;DHT22;701;52.526;13.408;2023-10-31T15:30:00;13.10;28.10
1413;DHT22;701;52.526;13.408;2023-10-31T15:32:25;13.10;28.00
1413;DHT22;701;52.526;13.408;2023-10-31T15:34:51;13.00;28.40
1413;DHT22;701;52.526;13.408;2023-10-31T15:37:17;13.00;29.00
1413;DHT22;701;52.526;13.408;2023-10-31T15:39:42;13.00;28.20
1413;DHT22;701;52.526;13.408;2023-10-31T15:42:09;13.00;28.60
1413;DHT22;701;52.526;13.408;2023-10-31T15:44:37;13.00;28.80
1413;DHT22;701;52.526;13.408;2023-10-31T15:47:04;13.00;28.70
1413;DHT22;701;52.526;13.408;2023-10-31T15:49:30;12.90;28.80
1413;DHT22;701;52.526;13.408;2023-10-31T15:51:56;12.90;29.30
1413;DHT22;701;52.526;13.408;2023-10-31T15:54:23;12.90;29.50
1413;DHT22;701;52.526;13.408;2023-10-31T15:56:49;12.90;29.50
1413;DHT22;701;52.526;13.408;2023-10-31T15:59:15;12.80;29.60
1413;DHT22;701;52.526;13.408;2023-10-31T16:01:42;12.80;29.60
1413;DHT22;701;52.526;13.408;2023-10-31T16:04:08;12.80;29.80
1413;DHT22;701;52.526;13.408;2023-10-31T16:06:35;12.80;30.30
1413;DHT22;701;52.526;13.408;2023-10-31T16:09:00;12.80;30.20